Terminal Aerodrome Forecast
Issued by NWS

Home | Current Version | Previous Version | Text Only | Print | Product List | Glossary On
Versions: 1 2 3 4 5 6 7 8 9 10 11 12 13 14 15
000
FTUS42 KTBW 010500
TAFLAL
TAF
KLAL 010539Z 0106/0206 VRB03KT P6SM FEW070 SCT250
     FM011400 11007KT P6SM SCT025 SCT100
     FM011800 12006KT P6SM VCTS SCT035CB BKN070
     FM020000 VRB03KT P6SM FEW030 BKN250
      AMD NOT SKED TIL 011200=

USA.gov is the U.S. government's official web portal to all federal, state and local government web resources and services.